Time;durP1;ratioP1;P1;durP2;ratioP2;P2;SDS_P1;SDS_P2;PMS_P1;PMS_P2;Temp;Humidity;BMP_temperature;BMP_pressure;BME280_temperature;BME280_humidity;BME280_pressure;Samples;Min_cycle;Max_cycle;Signal;HPM_P1;HPM_P2
2023/07/12 00:01:15;;;;;;;2.13;1.50;;;;;;;17.06;100.00;96769.56;5006195;28;21456;-61
2023/07/12 00:03:42;;;;;;;1.37;1.30;;;;;;;16.89;100.00;96736.56;5014226;28;20584;-62
2023/07/12 00:06:13;;;;;;;2.60;1.60;;;;;;;17.04;100.00;96722.69;5004145;28;20838;-61
2023/07/12 00:08:41;;;;;;;2.10;1.63;;;;;;;17.00;100.00;96710.81;5014108;28;20212;-62
2023/07/12 00:11:17;;;;;;;5.70;1.10;;;;;;;16.98;100.00;96702.22;5016927;28;20227;-63
2023/07/12 00:13:44;;;;;;;1.90;1.40;;;;;;;17.08;100.00;96691.75;5014499;28;20568;-61
2023/07/12 00:16:19;;;;;;;2.07;1.00;;;;;;;17.05;100.00;96679.63;5006156;28;20221;-62
2023/07/12 00:18:47;;;;;;;1.70;1.37;;;;;;;17.11;100.00;96685.91;5012247;28;20207;-61
2023/07/12 00:21:22;;;;;;;2.20;1.13;;;;;;;17.32;100.00;96680.91;5010990;28;20240;-64
2023/07/12 00:23:50;;;;;;;2.97;1.00;;;;;;;17.41;100.00;96684.84;5015325;28;20780;-61
2023/07/12 00:26:22;;;;;;;1.60;1.37;;;;;;;17.28;100.00;96710.06;5014829;28;20204;-62
2023/07/12 00:28:49;;;;;;;1.53;1.37;;;;;;;17.10;100.00;96759.22;5010656;28;20258;-62
2023/07/12 00:31:17;;;;;;;1.47;1.37;;;;;;;16.95;100.00;96783.78;5009032;28;20336;-62
2023/07/12 00:33:45;;;;;;;1.20;1.20;;;;;;;16.94;100.00;96803.56;5013391;28;20228;-61
2023/07/12 00:36:14;;;;;;;1.67;1.53;;;;;;;16.89;100.00;96812.25;5007667;28;20311;-61
2023/07/12 00:38:42;;;;;;;3.33;1.67;;;;;;;16.87;100.00;96826.94;5012831;28;20215;-62
2023/07/12 00:41:17;;;;;;;2.10;1.90;;;;;;;16.86;100.00;96830.66;5009600;28;20629;-61
2023/07/12 00:43:49;;;;;;;3.27;2.03;;;;;;;16.86;100.00;96828.78;5017030;28;20235;-63
2023/07/12 00:46:20;;;;;;;2.33;2.10;;;;;;;16.79;100.00;96834.25;5014471;28;20751;-62
2023/07/12 00:48:47;;;;;;;2.77;1.97;;;;;;;16.81;100.00;96838.56;5017039;28;20692;-61
2023/07/12 00:51:32;;;;;;;2.33;2.17;;;;;;;16.83;100.00;96847.16;5009008;28;20204;-61
2023/07/12 00:54:00;;;;;;;2.93;2.67;;;;;;;16.84;100.00;96846.09;5013610;28;20685;-60
2023/07/12 00:56:28;;;;;;;2.00;1.80;;;;;;;16.98;100.00;96852.91;5018572;28;20761;-62
2023/07/12 00:59:04;;;;;;;2.00;1.80;;;;;;;16.96;100.00;96844.25;5019555;28;20283;-60
2023/07/12 01:01:33;;;;;;;2.70;2.20;;;;;;;17.03;100.00;96844.16;5015783;28;20204;-62
2023/07/12 01:04:02;;;;;;;3.13;2.30;;;;;;;17.04;100.00;96845.78;5014206;28;20236;-62
2023/07/12 01:06:31;;;;;;;2.67;2.47;;;;;;;17.05;100.00;96840.22;5014589;28;20303;-62
2023/07/12 01:09:03;;;;;;;2.47;2.37;;;;;;;17.08;100.00;96844.28;5018658;28;20662;-63
2023/07/12 01:11:31;;;;;;;5.70;2.90;;;;;;;17.10;100.00;96839.53;5018193;28;20265;-61
2023/07/12 01:14:00;;;;;;;2.40;2.30;;;;;;;17.16;100.00;96821.69;5015115;28;20689;-61
2023/07/12 01:16:30;;;;;;;5.00;3.13;;;;;;;17.19;100.00;96814.00;5009437;28;20279;-62
2023/07/12 01:18:57;;;;;;;3.07;2.87;;;;;;;17.20;100.00;96817.50;5012914;28;20262;-62
2023/07/12 01:21:31;;;;;;;2.83;2.63;;;;;;;17.18;100.00;96804.34;5015526;28;20207;-64
2023/07/12 01:23:59;;;;;;;2.80;2.50;;;;;;;17.13;100.00;96806.09;5017694;28;20560;-61
2023/07/12 01:26:30;;;;;;;2.80;2.70;;;;;;;17.18;100.00;96798.16;5014835;28;20290;-61
2023/07/12 01:28:59;;;;;;;3.30;3.03;;;;;;;17.16;100.00;96798.44;5014913;28;20205;-62
2023/07/12 01:31:29;;;;;;;6.50;3.70;;;;;;;17.10;100.00;96801.22;5009752;28;20221;-63
2023/07/12 01:33:57;;;;;;;3.67;3.37;;;;;;;17.04;100.00;96793.09;5013086;28;20286;-62
2023/07/12 01:36:27;;;;;;;4.40;3.50;;;;;;;17.19;100.00;96805.16;5008526;28;20225;-62
2023/07/12 01:38:57;;;;;;;3.43;3.23;;;;;;;17.26;100.00;96791.66;5017019;28;20790;-59
2023/07/12 01:41:25;;;;;;;3.13;2.93;;;;;;;17.24;100.00;96770.47;5010593;28;20224;-61
2023/07/12 01:43:54;;;;;;;3.60;3.40;;;;;;;17.36;100.00;96757.03;5016827;28;20819;-61
2023/07/12 01:46:22;;;;;;;4.50;3.77;;;;;;;17.19;100.00;96719.50;5016358;28;20210;-62
2023/07/12 01:48:50;;;;;;;3.20;3.00;;;;;;;17.13;100.00;96694.50;5014744;28;20211;-62
2023/07/12 01:51:19;;;;;;;3.47;3.27;;;;;;;17.04;100.00;96637.03;5006415;28;20293;-62
2023/07/12 01:53:49;;;;;;;3.50;3.20;;;;;;;17.04;100.00;96591.53;5017201;28;20260;-62
2023/07/12 01:56:17;;;;;;;3.80;3.40;;;;;;;17.08;100.00;96557.94;5016957;28;20620;-61
2023/07/12 01:58:45;;;;;;;3.40;3.20;;;;;;;17.01;100.00;96610.75;5013972;28;20237;-59
2023/07/12 02:01:13;;;;;;;4.13;3.73;;;;;;;17.03;100.00;96657.66;5011710;28;20231;-62
2023/07/12 02:03:40;;;;;;;4.00;3.70;;;;;;;17.16;100.00;96667.25;5014733;28;20209;-62
2023/07/12 02:06:08;;;;;;;3.60;3.30;;;;;;;17.21;100.00;96701.34;5007751;28;20213;-60
2023/07/12 02:08:36;;;;;;;3.40;3.20;;;;;;;17.12;100.00;96732.22;5014445;28;20250;-61
2023/07/12 02:11:05;;;;;;;4.23;3.50;;;;;;;17.01;100.00;96734.69;5019239;28;20224;-61
2023/07/12 02:13:33;;;;;;;3.83;3.30;;;;;;;16.99;100.00;96742.13;5013022;28;20216;-62
2023/07/12 02:16:01;;;;;;;3.60;3.03;;;;;;;16.97;100.00;96743.38;5009775;28;20211;-61
2023/07/12 02:18:28;;;;;;;3.70;3.40;;;;;;;16.94;100.00;96712.56;5012903;28;20725;-62
2023/07/12 02:20:56;;;;;;;3.87;3.17;;;;;;;16.85;100.00;96725.50;5010017;28;20271;-61
2023/07/12 02:23:24;;;;;;;3.10;2.90;;;;;;;16.83;100.00;96742.81;5013901;28;20202;-64
2023/07/12 02:25:51;;;;;;;4.30;4.00;;;;;;;16.90;100.00;96748.88;5018087;28;20629;-61
2023/07/12 02:28:20;;;;;;;4.50;3.63;;;;;;;16.84;100.00;96710.50;5015660;28;20248;-58
2023/07/12 02:30:48;;;;;;;3.27;3.10;;;;;;;16.76;100.00;96705.50;5002926;28;20232;-60
2023/07/12 02:33:16;;;;;;;3.87;3.63;;;;;;;16.73;100.00;96693.41;5015927;28;20224;-62
2023/07/12 02:35:43;;;;;;;3.87;3.37;;;;;;;16.74;100.00;96681.66;5014868;28;20315;-61
2023/07/12 02:38:11;;;;;;;3.93;3.63;;;;;;;16.69;100.00;96694.13;5015773;28;20328;-61
2023/07/12 02:40:39;;;;;;;4.27;4.07;;;;;;;16.70;100.00;96712.59;5015522;28;20735;-59
2023/07/12 02:43:06;;;;;;;4.27;3.70;;;;;;;16.68;100.00;96709.34;5012318;28;20689;-61
2023/07/12 02:45:35;;;;;;;4.23;3.70;;;;;;;16.66;100.00;96694.56;5011424;28;20316;-60
2023/07/12 02:48:04;;;;;;;3.90;3.60;;;;;;;16.63;100.00;96691.31;5015409;28;20210;-62
2023/07/12 02:50:31;;;;;;;4.17;3.87;;;;;;;16.62;100.00;96697.72;5005844;28;20201;-60
2023/07/12 02:52:59;;;;;;;5.80;3.80;;;;;;;16.60;100.00;96691.78;5014144;28;20939;-60
2023/07/12 02:55:27;;;;;;;5.73;3.70;;;;;;;16.61;100.00;96697.97;5012252;28;20227;-59
2023/07/12 02:57:54;;;;;;;4.10;3.80;;;;;;;16.61;100.00;96708.66;5016093;28;20220;-59
2023/07/12 03:00:22;;;;;;;5.23;4.73;;;;;;;16.62;100.00;96700.41;5014704;28;20717;-59
2023/07/12 03:02:51;;;;;;;4.93;4.53;;;;;;;16.60;100.00;96691.00;5014401;28;20219;-62
2023/07/12 03:05:19;;;;;;;5.07;4.67;;;;;;;16.62;100.00;96679.00;5012950;28;20318;-61
2023/07/12 03:07:46;;;;;;;5.27;4.33;;;;;;;16.59;100.00;96658.06;5014933;28;20200;-62
2023/07/12 03:10:14;;;;;;;6.13;4.70;;;;;;;16.46;100.00;96626.25;5014282;28;20227;-59
2023/07/12 03:12:42;;;;;;;5.87;5.30;;;;;;;16.63;100.00;96651.22;5015338;28;20838;-57
2023/07/12 03:15:10;;;;;;;5.83;5.37;;;;;;;16.61;100.00;96642.59;5013417;28;20225;-61
2023/07/12 03:17:38;;;;;;;6.80;6.20;;;;;;;16.60;100.00;96646.34;5011373;28;20260;-63
2023/07/12 03:20:08;;;;;;;6.50;6.10;;;;;;;16.63;100.00;96642.38;5015756;28;20299;-62
2023/07/12 03:22:36;;;;;;;6.33;5.83;;;;;;;16.62;100.00;96636.22;5012860;28;20291;-63
2023/07/12 03:25:04;;;;;;;7.03;6.33;;;;;;;16.60;100.00;96626.81;5012224;28;20306;-65
2023/07/12 03:27:31;;;;;;;7.53;6.30;;;;;;;16.56;100.00;96617.63;5012857;28;20275;-65
2023/07/12 03:29:59;;;;;;;6.77;6.23;;;;;;;16.59;100.00;96609.16;5014076;28;20247;-67
2023/07/12 03:32:27;;;;;;;6.50;6.10;;;;;;;16.62;100.00;96600.66;5012476;28;22325;-63
2023/07/12 03:34:55;;;;;;;6.67;6.07;;;;;;;16.56;100.00;96597.03;5011150;28;20228;-64
2023/07/12 03:37:24;;;;;;;6.90;5.97;;;;;;;16.56;100.00;96597.03;5006685;28;21142;-66
2023/07/12 03:39:51;;;;;;;7.00;6.50;;;;;;;16.56;100.00;96586.34;5009824;28;20287;-65
2023/07/12 03:42:19;;;;;;;6.67;5.87;;;;;;;16.61;100.00;96589.13;5006403;28;20448;-65
2023/07/12 03:44:47;;;;;;;6.10;5.63;;;;;;;16.67;100.00;96594.56;5011559;28;20306;-65
2023/07/12 03:47:14;;;;;;;6.73;6.13;;;;;;;16.58;100.00;96592.28;5011293;28;20208;-65
2023/07/12 03:49:42;;;;;;;6.50;5.70;;;;;;;16.67;100.00;96599.91;5007669;28;20235;-65
2023/07/12 03:52:10;;;;;;;6.90;6.20;;;;;;;16.69;100.00;96598.63;5009778;28;20819;-65
2023/07/12 03:54:39;;;;;;;6.37;5.90;;;;;;;16.71;100.00;96604.56;5010702;28;20755;-64
2023/07/12 03:57:06;;;;;;;12.70;5.93;;;;;;;16.48;100.00;96576.03;5011818;28;20403;-65
2023/07/12 03:59:34;;;;;;;6.57;5.97;;;;;;;16.71;100.00;96617.13;5008740;28;20820;-65
2023/07/12 04:02:02;;;;;;;6.20;5.80;;;;;;;16.70;100.00;96597.59;5015377;28;20207;-64
2023/07/12 04:04:30;;;;;;;7.70;5.47;;;;;;;16.74;100.00;96573.88;5005436;28;20799;-64
2023/07/12 04:06:57;;;;;;;6.53;6.13;;;;;;;16.77;100.00;96594.78;5013563;28;20205;-63
2023/07/12 04:09:25;;;;;;;7.37;6.07;;;;;;;16.77;100.00;96579.53;5013383;28;20295;-63
2023/07/12 04:11:54;;;;;;;5.90;5.40;;;;;;;16.74;100.00;96592.59;5016215;28;20232;-65
2023/07/12 04:14:21;;;;;;;6.10;5.60;;;;;;;16.78;100.00;96591.06;5011686;28;20823;-65
2023/07/12 04:16:49;;;;;;;5.90;5.40;;;;;;;16.75;100.00;96599.56;5018610;28;20236;-65
2023/07/12 04:19:17;;;;;;;6.17;5.77;;;;;;;16.77;100.00;96600.94;5019267;28;20223;-63
2023/07/12 04:21:45;;;;;;;5.33;4.83;;;;;;;16.79;100.00;96604.19;5019907;28;20690;-65
2023/07/12 04:24:12;;;;;;;5.80;5.30;;;;;;;16.81;100.00;96595.09;5015923;28;20232;-62
2023/07/12 04:26:40;;;;;;;5.30;4.90;;;;;;;16.87;100.00;96596.84;5018023;28;20216;-64
2023/07/12 04:29:09;;;;;;;5.93;5.30;;;;;;;16.92;100.00;96588.91;5018262;28;20211;-62
2023/07/12 04:31:37;;;;;;;8.47;4.83;;;;;;;16.96;100.00;96592.72;5017240;28;20209;-63
2023/07/12 04:34:05;;;;;;;7.43;5.27;;;;;;;17.00;100.00;96593.09;5016721;28;20251;-63
2023/07/12 04:36:33;;;;;;;6.33;5.83;;;;;;;17.13;100.00;96602.69;5017281;28;20224;-63
2023/07/12 04:39:00;;;;;;;6.60;5.90;;;;;;;17.27;100.00;96600.53;5015775;28;20227;-61
2023/07/12 04:41:28;;;;;;;5.80;5.30;;;;;;;17.33;100.00;96602.22;5016491;28;21058;-61
2023/07/12 04:43:56;;;;;;;5.40;4.73;;;;;;;17.52;100.00;96589.41;5019582;28;20247;-63
2023/07/12 04:46:25;;;;;;;5.83;5.43;;;;;;;17.56;100.00;96595.13;5016174;28;20395;-63
2023/07/12 04:48:53;;;;;;;5.33;4.90;;;;;;;17.70;100.00;96596.41;5014575;28;20204;-63
2023/07/12 04:51:23;;;;;;;6.27;5.40;;;;;;;17.74;100.00;96594.06;5013144;28;20201;-60
2023/07/12 04:53:50;;;;;;;7.07;6.03;;;;;;;17.76;100.00;96589.25;5018858;28;20315;-61
2023/07/12 04:56:18;;;;;;;5.23;4.83;;;;;;;17.69;100.00;96576.03;5015060;28;20208;-62
2023/07/12 04:58:46;;;;;;;6.97;5.00;;;;;;;17.56;100.00;96579.84;5012132;28;20264;-61
2023/07/12 05:01:14;;;;;;;6.67;5.27;;;;;;;17.49;100.00;96580.03;5019414;28;20217;-62
2023/07/12 05:03:43;;;;;;;5.90;5.30;;;;;;;17.39;100.00;96589.75;5018440;28;20753;-61
2023/07/12 05:06:11;;;;;;;6.53;4.73;;;;;;;17.42;100.00;96592.72;5014336;28;20612;-62
2023/07/12 05:08:50;;;;;;;5.30;4.83;;;;;;;17.52;100.00;96585.94;5017698;28;20617;-62
2023/07/12 05:11:18;;;;;;;7.93;5.90;;;;;;;17.57;100.00;96597.53;5020054;28;20283;-62
2023/07/12 05:13:46;;;;;;;8.37;5.37;;;;;;;17.61;100.00;96598.66;5014840;28;20347;-61
2023/07/12 05:16:13;;;;;;;6.57;5.30;;;;;;;17.74;100.00;96591.38;5018435;28;20207;-62
2023/07/12 05:18:42;;;;;;;6.07;5.57;;;;;;;17.77;100.00;96586.31;5017132;28;20224;-62
2023/07/12 05:21:10;;;;;;;6.73;5.30;;;;;;;17.88;100.00;96581.94;5017361;28;20616;-62
2023/07/12 05:23:39;;;;;;;10.27;5.93;;;;;;;17.92;100.00;96577.69;5018440;28;20209;-60
2023/07/12 05:26:07;;;;;;;5.50;4.90;;;;;;;18.03;100.00;96570.66;5014386;28;20802;-63
2023/07/12 05:28:35;;;;;;;8.77;5.77;;;;;;;18.11;100.00;96569.44;5015675;28;20714;-62
2023/07/12 05:31:06;;;;;;;5.07;4.77;;;;;;;18.17;100.00;96572.97;5016289;28;20223;-65
2023/07/12 05:33:34;;;;;;;8.53;5.80;;;;;;;18.26;100.00;96570.69;5014849;28;20208;-62
2023/07/12 05:36:04;;;;;;;6.30;5.73;;;;;;;18.47;100.00;96583.28;5014477;28;20201;-63
2023/07/12 05:38:31;;;;;;;8.40;5.53;;;;;;;18.58;100.00;96564.63;5015092;28;20310;-63
2023/07/12 05:40:59;;;;;;;13.03;4.93;;;;;;;18.75;100.00;96554.66;5016647;28;20647;-62
2023/07/12 05:43:27;;;;;;;6.43;5.23;;;;;;;19.14;100.00;96571.69;5014502;28;20686;-62
2023/07/12 05:45:56;;;;;;;6.57;5.97;;;;;;;19.24;100.00;96575.25;5015559;28;20208;-62
2023/07/12 05:48:24;;;;;;;8.13;5.43;;;;;;;19.49;100.00;96567.69;5012222;28;20210;-63
2023/07/12 05:50:53;;;;;;;5.50;4.97;;;;;;;19.71;100.00;96556.84;5012287;28;20200;-61
2023/07/12 05:53:22;;;;;;;5.83;5.20;;;;;;;19.89;100.00;96550.25;5013566;28;20204;-64
2023/07/12 05:55:55;;;;;;;7.80;6.33;;;;;;;19.63;100.00;96549.25;5012471;28;20231;-63
2023/07/12 05:58:23;;;;;;;7.97;7.17;;;;;;;19.48;100.00;96545.38;5013120;28;20274;-62
2023/07/12 06:00:55;;;;;;;7.30;4.90;;;;;;;19.38;100.00;96556.06;5014832;28;20235;-63
2023/07/12 06:03:23;;;;;;;6.63;4.63;;;;;;;19.51;100.00;96552.94;5013807;28;20698;-63
2023/07/12 06:05:52;;;;;;;7.17;4.63;;;;;;;19.46;100.00;96531.41;5011976;28;20226;-63
2023/07/12 06:08:20;;;;;;;6.50;4.30;;;;;;;19.53;100.00;96532.00;5013726;28;20209;-63
2023/07/12 06:10:49;;;;;;;7.23;4.80;;;;;;;19.75;100.00;96565.19;5015360;28;20208;-63
2023/07/12 06:13:16;;;;;;;5.53;4.47;;;;;;;20.04;100.00;96544.16;5014958;28;20208;-62
2023/07/12 06:15:44;;;;;;;7.07;4.43;;;;;;;20.22;100.00;96559.03;5018053;28;20358;-63
2023/07/12 06:18:12;;;;;;;4.83;4.33;;;;;;;20.35;100.00;96540.81;5011000;28;20292;-62
2023/07/12 06:20:40;;;;;;;5.73;4.83;;;;;;;20.34;100.00;96540.00;5013738;28;20274;-63
2023/07/12 06:23:07;;;;;;;6.47;4.47;;;;;;;20.24;100.00;96554.19;5014827;28;20212;-62
2023/07/12 06:25:35;;;;;;;5.63;4.47;;;;;;;20.06;100.00;96558.16;5013393;28;20293;-62
2023/07/12 06:28:04;;;;;;;4.23;3.90;;;;;;;20.19;100.00;96564.16;5014707;28;20288;-63
2023/07/12 06:30:32;;;;;;;4.97;4.63;;;;;;;20.34;100.00;96574.97;5014661;28;20321;-63
2023/07/12 06:32:59;;;;;;;4.70;4.30;;;;;;;20.41;100.00;96566.66;5016497;28;20724;-63
2023/07/12 06:35:30;;;;;;;4.33;3.93;;;;;;;20.50;100.00;96561.59;5014039;28;20227;-64
2023/07/12 06:37:57;;;;;;;4.40;4.00;;;;;;;20.36;100.00;96567.44;5014443;28;20207;-63
2023/07/12 06:40:25;;;;;;;4.83;4.10;;;;;;;20.34;100.00;96542.69;5014399;28;20733;-63
2023/07/12 06:42:53;;;;;;;5.13;4.30;;;;;;;20.65;100.00;96553.56;5015111;28;20645;-62
2023/07/12 06:45:22;;;;;;;5.73;4.57;;;;;;;20.62;100.00;96562.16;5018102;28;20224;-63
2023/07/12 06:47:49;;;;;;;7.37;4.37;;;;;;;20.67;100.00;96562.19;5014843;28;20683;-64
2023/07/12 06:50:18;;;;;;;4.23;3.93;;;;;;;21.03;100.00;96566.91;5014057;28;20200;-63
2023/07/12 06:52:45;;;;;;;4.30;3.90;;;;;;;20.96;100.00;96563.63;5017518;28;20240;-64
2023/07/12 06:55:13;;;;;;;3.87;3.60;;;;;;;21.36;100.00;96570.13;5017563;28;20311;-62
2023/07/12 06:57:40;;;;;;;4.57;4.17;;;;;;;21.16;100.00;96570.13;5017663;28;20216;-62
2023/07/12 07:00:10;;;;;;;4.00;3.70;;;;;;;21.40;100.00;96582.03;5013982;28;20323;-63
2023/07/12 07:02:39;;;;;;;5.53;4.33;;;;;;;21.33;100.00;96578.75;5016251;28;20848;-61
2023/07/12 07:05:07;;;;;;;3.90;3.60;;;;;;;21.03;100.00;96583.06;5013403;28;20315;-64
2023/07/12 07:07:34;;;;;;;4.83;3.50;;;;;;;20.84;100.00;96587.28;5015877;28;20291;-62
2023/07/12 07:10:02;;;;;;;5.27;3.63;;;;;;;20.79;100.00;96583.53;5013290;28;20298;-62
2023/07/12 07:12:30;;;;;;;4.80;4.03;;;;;;;21.19;100.00;96577.69;5012165;28;20610;-64
2023/07/12 07:14:58;;;;;;;5.77;3.83;;;;;;;21.43;100.00;96585.25;5010586;28;20568;-62
2023/07/12 07:17:25;;;;;;;5.93;4.07;;;;;;;21.86;100.00;96580.41;5015831;28;20292;-61
2023/07/12 07:19:54;;;;;;;3.83;3.60;;;;;;;22.22;100.00;96593.81;5010009;28;20401;-60
2023/07/12 07:22:22;;;;;;;4.37;3.93;;;;;;;22.42;100.00;96600.22;5016747;28;20208;-62
2023/07/12 07:24:49;;;;;;;4.30;4.00;;;;;;;22.45;100.00;96604.28;5014906;28;20256;-62
2023/07/12 07:27:17;;;;;;;6.00;4.20;;;;;;;22.40;100.00;96618.59;5015257;28;20227;-61
2023/07/12 07:29:45;;;;;;;6.63;4.30;;;;;;;22.43;100.00;96615.34;5017063;28;20211;-61
2023/07/12 07:32:13;;;;;;;6.57;3.87;;;;;;;22.30;100.00;96629.41;5011502;28;20232;-61
2023/07/12 07:34:40;;;;;;;4.47;4.07;;;;;;;22.36;100.00;96625.63;5014720;28;20326;-62
2023/07/12 07:37:09;;;;;;;5.23;3.87;;;;;;;22.46;100.00;96625.63;5016833;28;20717;-62
2023/07/12 07:39:37;;;;;;;4.90;4.40;;;;;;;22.37;100.00;96627.25;5012392;28;20921;-62
2023/07/12 07:42:05;;;;;;;4.93;3.77;;;;;;;22.04;100.00;96632.16;5011475;28;20204;-63
2023/07/12 07:44:33;;;;;;;4.03;3.70;;;;;;;21.83;100.00;96630.28;5014119;28;20293;-61
2023/07/12 07:47:01;;;;;;;4.10;3.80;;;;;;;21.89;100.00;96633.78;5015777;28;20309;-63
2023/07/12 07:49:29;;;;;;;4.47;3.93;;;;;;;22.04;100.00;96632.16;5012420;28;20298;-60
2023/07/12 07:51:56;;;;;;;4.33;4.03;;;;;;;21.97;100.00;96633.25;5011606;28;20743;-62
2023/07/12 07:54:25;;;;;;;6.63;4.70;;;;;;;22.05;100.00;96633.78;5018295;28;20315;-63
2023/07/12 07:56:56;;;;;;;4.30;3.80;;;;;;;22.59;100.00;96639.63;5012067;28;20209;-63
2023/07/12 07:59:25;;;;;;;4.27;3.57;;;;;;;22.73;100.00;96634.44;5015665;28;20196;-62
2023/07/12 08:01:52;;;;;;;4.40;4.00;;;;;;;22.88;100.00;96630.84;5012618;28;20295;-62
2023/07/12 08:04:20;;;;;;;5.53;3.93;;;;;;;23.26;100.00;96633.94;5012870;28;20255;-62
2023/07/12 08:06:49;;;;;;;3.87;3.53;;;;;;;23.19;100.00;96626.13;5014335;28;20208;-63
2023/07/12 08:09:17;;;;;;;9.33;4.53;;;;;;;23.54;100.00;96623.47;5016185;28;20292;-63
2023/07/12 08:11:46;;;;;;;4.53;4.13;;;;;;;23.85;100.00;96624.03;5012874;28;20703;-63
2023/07/12 08:14:14;;;;;;;3.83;3.37;;;;;;;23.84;100.00;96635.94;5013530;28;20254;-62
2023/07/12 08:16:42;;;;;;;4.77;3.90;;;;;;;23.38;100.00;96631.69;5016348;28;20703;-62
2023/07/12 08:19:09;;;;;;;3.50;3.30;;;;;;;23.55;100.00;96628.63;5013398;28;20203;-63
2023/07/12 08:21:45;;;;;;;4.70;3.60;;;;;;;23.79;100.00;96635.97;5016345;28;20254;-62
2023/07/12 08:24:12;;;;;;;4.07;3.73;;;;;;;23.66;100.00;96634.72;5014972;28;20282;-63
2023/07/12 08:26:40;;;;;;;3.50;3.20;;;;;;;23.80;100.00;96636.81;5018399;28;20212;-63
2023/07/12 08:29:20;;;;;;;4.17;3.63;;;;;;;23.97;100.00;96639.88;5017923;28;20556;-63
2023/07/12 08:31:47;;;;;;;4.30;3.80;;;;;;;24.07;100.00;96639.03;5011747;28;20204;-63
2023/07/12 08:34:15;;;;;;;7.30;4.67;;;;;;;23.86;100.00;96638.38;5013955;28;20263;-63
2023/07/12 08:36:42;;;;;;;4.30;3.93;;;;;;;24.16;100.00;96633.81;5017450;28;20240;-62
2023/07/12 08:39:10;;;;;;;6.03;4.30;;;;;;;24.41;100.00;96634.63;5012997;28;20295;-62
2023/07/12 08:41:38;;;;;;;5.27;3.67;;;;;;;24.54;100.00;96636.66;5014386;28;20232;-63
2023/07/12 08:44:11;;;;;;;5.63;4.37;;;;;;;24.71;100.00;96629.97;5012150;28;20260;-62
2023/07/12 08:46:43;;;;;;;6.00;4.07;;;;;;;24.71;100.00;96644.31;5016742;28;20217;-63
2023/07/12 08:49:11;;;;;;;4.07;3.77;;;;;;;24.63;100.00;96627.88;5010944;28;20308;-62
2023/07/12 08:51:39;;;;;;;4.60;3.93;;;;;;;24.83;100.00;96649.34;5013437;28;20283;-63
2023/07/12 08:54:21;;;;;;;5.17;4.33;;;;;;;24.63;100.00;96650.38;5013798;28;20225;-63
2023/07/12 08:56:50;;;;;;;6.33;3.90;;;;;;;24.54;100.00;96652.91;5008810;28;20247;-62
2023/07/12 08:59:18;;;;;;;4.43;4.13;;;;;;;24.55;100.00;96656.41;5013939;28;20328;-63
2023/07/12 09:01:52;;;;;;;6.10;4.33;;;;;;;24.82;100.00;96661.28;5017673;28;20808;-63
2023/07/12 09:04:23;;;;;;;7.73;4.37;;;;;;;24.91;100.00;96660.66;5019278;28;20307;-62
2023/07/12 09:06:51;;;;;;;5.50;4.70;;;;;;;24.92;100.00;96662.25;5015960;28;20292;-61
2023/07/12 09:09:19;;;;;;;5.03;4.37;;;;;;;24.81;100.00;96659.69;5020306;28;20658;-65
2023/07/12 09:11:47;;;;;;;4.30;4.00;;;;;;;24.52;100.00;96646.97;5019772;28;20300;-62
2023/07/12 09:14:16;;;;;;;4.53;3.97;;;;;;;24.34;100.00;96653.09;5013477;28;20802;-62
2023/07/12 09:16:47;;;;;;;8.43;4.83;;;;;;;24.47;100.00;96651.63;5016083;28;20204;-63
2023/07/12 09:19:20;;;;;;;5.73;4.20;;;;;;;24.45;100.00;96662.75;5015724;28;20875;-63
2023/07/12 09:21:49;;;;;;;5.67;5.17;;;;;;;24.39;100.00;96653.88;5020281;28;20239;-62
2023/07/12 09:24:21;;;;;;;7.07;5.03;;;;;;;24.87;100.00;96654.19;5013694;28;20274;-61
2023/07/12 09:26:50;;;;;;;5.40;4.90;;;;;;;24.97;100.00;96662.19;5017413;28;20250;-62
2023/07/12 09:29:21;;;;;;;5.50;4.93;;;;;;;24.73;100.00;96660.25;5017167;28;20204;-62
2023/07/12 09:31:51;;;;;;;5.40;4.50;;;;;;;24.37;100.00;96652.53;5017691;28;20292;-63
2023/07/12 09:34:22;;;;;;;6.10;4.30;;;;;;;24.79;100.00;96659.13;5017219;28;20228;-62
2023/07/12 09:36:56;;;;;;;4.57;4.17;;;;;;;25.27;100.00;96646.63;5017234;28;20557;-62
2023/07/12 09:39:25;;;;;;;4.50;4.20;;;;;;;25.48;100.00;96647.16;5017451;28;20200;-63
2023/07/12 09:41:56;;;;;;;5.63;5.00;;;;;;;25.17;100.00;96638.59;5016766;28;20699;-62
2023/07/12 09:44:24;;;;;;;6.30;5.70;;;;;;;25.32;100.00;96641.13;5015929;28;20602;-63
2023/07/12 09:46:55;;;;;;;5.60;4.90;;;;;;;25.08;100.00;96619.50;5018800;28;20200;-60
2023/07/12 09:49:25;;;;;;;5.07;4.57;;;;;;;24.98;100.00;96623.16;5012638;28;20204;-62
2023/07/12 09:51:58;;;;;;;5.77;5.20;;;;;;;25.00;100.00;96620.97;5015914;28;20258;-62
2023/07/12 09:54:33;;;;;;;5.23;4.57;;;;;;;24.53;100.00;96635.03;5019148;28;20244;-63
2023/07/12 09:57:03;;;;;;;5.90;5.23;;;;;;;24.69;100.00;96618.59;5014033;28;20219;-62
2023/07/12 09:59:38;;;;;;;5.13;4.60;;;;;;;24.84;100.00;96620.34;5018304;28;20371;-63
2023/07/12 10:02:18;;;;;;;7.60;4.93;;;;;;;24.61;100.00;96611.13;5016274;28;20429;-62
2023/07/12 10:04:50;;;;;;;5.60;4.83;;;;;;;24.66;100.00;96619.19;5016495;28;20722;-62
2023/07/12 10:07:30;;;;;;;5.20;4.70;;;;;;;24.62;100.00;96615.44;5015384;28;20212;-62
2023/07/12 10:09:57;;;;;;;7.20;5.10;;;;;;;25.08;100.00;96616.81;5018372;28;20236;-62
2023/07/12 10:12:29;;;;;;;6.10;5.50;;;;;;;25.12;100.00;96605.06;5017133;28;20278;-62
2023/07/12 10:14:56;;;;;;;7.90;7.17;;;;;;;25.28;100.00;96599.44;5013292;28;20220;-61
2023/07/12 10:17:31;;;;;;;7.33;5.93;;;;;;;25.68;100.00;96608.06;5016326;28;20208;-62
2023/07/12 10:20:01;;;;;;;6.03;5.47;;;;;;;25.83;100.00;96600.75;5013710;28;20245;-64
2023/07/12 10:22:31;;;;;;;5.23;4.73;;;;;;;25.82;100.00;96601.88;5014524;28;20250;-63
2023/07/12 10:24:59;;;;;;;5.60;4.97;;;;;;;26.36;100.00;96596.84;5011796;28;20770;-63
2023/07/12 10:27:32;;;;;;;4.80;4.40;;;;;;;26.12;100.00;96594.28;5012311;28;20204;-63
2023/07/12 10:30:04;;;;;;;7.67;4.40;;;;;;;26.01;100.00;96599.09;5014283;28;20212;-62
2023/07/12 10:32:36;;;;;;;5.47;4.53;;;;;;;26.15;100.00;96589.09;5017517;28;20258;-63
2023/07/12 10:35:17;;;;;;;5.43;4.93;;;;;;;26.17;100.00;96601.56;5012395;28;20231;-62
2023/07/12 10:37:47;;;;;;;6.13;4.40;;;;;;;25.84;100.00;96605.09;5017307;28;20298;-63
2023/07/12 10:40:16;;;;;;;5.07;4.70;;;;;;;25.77;100.00;96615.53;5012581;28;20765;-62
2023/07/12 10:42:49;;;;;;;5.13;4.63;;;;;;;25.78;100.00;96609.00;5013676;28;20315;-62
2023/07/12 10:45:19;;;;;;;4.73;4.43;;;;;;;26.03;100.00;96598.81;5014565;28;20224;-64
2023/07/12 10:47:49;;;;;;;4.93;4.53;;;;;;;26.12;100.00;96597.00;5016891;28;20291;-64
2023/07/12 10:50:24;;;;;;;5.27;4.80;;;;;;;26.31;100.00;96591.53;5014284;28;20672;-62
2023/07/12 10:52:59;;;;;;;5.13;4.63;;;;;;;26.64;100.00;96598.75;5016905;28;20242;-62
2023/07/12 10:55:39;;;;;;;9.03;4.93;;;;;;;26.49;100.00;96597.97;5014307;28;20282;-62
2023/07/12 10:58:48;;;;;;;6.93;4.80;;;;;;;26.75;100.00;96592.03;5014771;28;20208;-63
2023/07/12 11:01:50;;;;;;;5.17;4.77;;;;;;;27.27;100.00;96599.06;5012629;28;20212;-62
2023/07/12 11:04:25;;;;;;;6.10;4.90;;;;;;;27.15;100.00;96596.88;5003443;28;20227;-63
2023/07/12 11:07:00;;;;;;;4.80;4.33;;;;;;;27.56;100.00;96590.50;5014508;28;20223;-61
2023/07/12 11:10:11;;;;;;;5.43;4.87;;;;;;;27.62;100.00;96595.81;5015885;28;20254;-62
2023/07/12 11:12:40;;;;;;;5.73;4.43;;;;;;;27.73;100.00;96583.59;5007011;28;20359;-63
2023/07/12 11:15:18;;;;;;;4.73;4.43;;;;;;;27.76;100.00;96576.72;5013756;28;20250;-62
2023/07/12 11:18:01;;;;;;;5.40;5.00;;;;;;;27.82;98.33;96561.84;5013245;28;20201;-63
2023/07/12 11:20:32;;;;;;;5.37;4.83;;;;;;;27.54;100.00;96573.69;5016132;28;20201;-63
2023/07/12 11:23:29;;;;;;;4.73;4.40;;;;;;;27.74;100.00;96585.22;5011076;28;20306;-63
2023/07/12 11:26:02;;;;;;;5.60;5.10;;;;;;;28.10;97.78;96586.19;5015148;28;20267;-63
2023/07/12 11:28:41;;;;;;;8.13;4.77;;;;;;;28.30;95.30;96574.78;5014791;28;20724;-63
2023/07/12 11:31:18;;;;;;;4.67;4.10;;;;;;;28.62;95.29;96579.38;5016785;28;20254;-62
2023/07/12 11:33:49;;;;;;;5.53;4.53;;;;;;;28.71;90.60;96583.69;5013305;28;20260;-62
2023/07/12 11:36:20;;;;;;;5.23;4.83;;;;;;;28.73;87.87;96584.19;5012398;28;20940;-63